Time;durP1;ratioP1;P1;durP2;ratioP2;P2;SDS_P1;SDS_P2;PMS_P1;PMS_P2;Temp;Humidity;BMP_temperature;BMP_pressure;BME280_temperature;BME280_humidity;BME280_pressure;Samples;Min_cycle;Max_cycle;Signal;HPM_P1;HPM_P2
2023/05/08 00:05:26;;;;;;;10.35;7.65;;;21.90;76.10;;;;;;10904147;32;20024;-71
2023/05/08 00:11:28;;;;;;;13.70;9.95;;;21.80;76.10;;;;;;10907092;32;20050;-71
2023/05/08 00:17:30;;;;;;;10.82;7.47;;;21.70;76.10;;;;;;10906359;32;20027;-71
2023/05/08 00:23:32;;;;;;;11.85;8.82;;;21.50;76.70;;;;;;10892794;32;20018;-72
2023/05/08 00:29:34;;;;;;;13.88;12.15;;;21.50;76.80;;;;;;10900827;32;20019;-72
2023/05/08 00:35:41;;;;;;;19.95;15.52;;;21.40;76.20;;;;;;10906898;32;20047;-73
2023/05/08 00:41:43;;;;;;;14.77;13.18;;;21.00;74.80;;;;;;10905738;32;20046;-71
2023/05/08 00:47:45;;;;;;;10.30;7.37;;;20.60;74.90;;;;;;10906534;32;20377;-73
2023/05/08 00:53:47;;;;;;;10.93;7.85;;;20.60;75.10;;;;;;10905171;32;20023;-73
2023/05/08 00:59:51;;;;;;;8.40;6.68;;;20.70;75.00;;;;;;10905405;32;20034;-73
2023/05/08 01:05:53;;;;;;;6.15;4.57;;;20.80;74.60;;;;;;10905728;32;20023;-73
2023/05/08 01:12:09;;;;;;;7.50;2.80;;;20.80;74.60;;;;;;10901940;32;20042;-73
2023/05/08 01:18:28;;;;;;;3.12;2.28;;;20.80;75.30;;;;;;10891423;32;20020;-73
2023/05/08 01:24:53;;;;;;;1.85;1.50;;;20.80;75.50;;;;;;10902607;32;20058;-73
2023/05/08 01:31:15;;;;;;;1.77;1.48;;;20.80;75.60;;;;;;10902780;32;20027;-73
2023/05/08 01:37:29;;;;;;;1.62;1.00;;;20.80;75.80;;;;;;10734083;33;20009;-73
2023/05/08 01:44:15;;;;;;;1.60;1.20;;;20.80;76.30;;;;;;10751689;33;20047;-73
2023/05/08 01:50:33;;;;;;;0.82;0.77;;;20.80;76.60;;;;;;10639373;32;20022;-72
2023/05/08 01:56:38;;;;;;;3.35;1.60;;;20.80;77.20;;;;;;10627487;32;20379;-76
2023/05/08 02:02:41;;;;;;;2.75;1.30;;;20.80;77.80;;;;;;10626242;32;20048;-71
2023/05/08 02:08:45;;;;;;;3.20;2.08;;;20.50;78.20;;;;;;10638676;32;20304;-71
2023/05/08 02:14:48;;;;;;;3.45;1.85;;;20.30;79.10;;;;;;10638521;32;20010;-70
2023/05/08 02:20:52;;;;;;;1.10;1.00;;;20.20;79.70;;;;;;10639090;33;20352;-71
2023/05/08 02:26:56;;;;;;;2.97;1.92;;;20.20;79.90;;;;;;10753999;33;20016;-70
2023/05/08 02:32:59;;;;;;;2.70;1.50;;;20.30;79.70;;;;;;10757269;33;20020;-71
2023/05/08 02:39:02;;;;;;;5.25;1.70;;;20.20;79.30;;;;;;10757119;33;20035;-72
2023/05/08 02:45:05;;;;;;;6.20;2.65;;;20.20;79.20;;;;;;10739353;33;20335;-70
2023/05/08 02:51:11;;;;;;;8.00;3.58;;;20.30;79.30;;;;;;10752557;33;20013;-73
2023/05/08 02:57:19;;;;;;;7.78;3.35;;;20.10;80.00;;;;;;10739384;32;20418;-73
2023/05/08 03:03:42;;;;;;;4.20;2.53;;;19.90;80.70;;;;;;10756104;33;20012;-73
2023/05/08 03:09:49;;;;;;;5.05;2.92;;;19.80;80.90;;;;;;10742830;33;20025;-73
2023/05/08 03:15:56;;;;;;;12.02;4.18;;;19.80;81.10;;;;;;10743276;33;20052;-73
2023/05/08 03:22:00;;;;;;;6.78;4.10;;;19.80;81.50;;;;;;10755410;33;20056;-75
2023/05/08 03:28:05;;;;;;;8.30;4.93;;;19.60;81.80;;;;;;10755439;33;20016;-72
2023/05/08 03:34:08;;;;;;;5.15;3.40;;;19.50;82.00;;;;;;10741163;33;20036;-73
2023/05/08 03:40:11;;;;;;;3.83;2.97;;;19.40;82.20;;;;;;10755477;33;20375;-73
2023/05/08 03:46:15;;;;;;;7.50;5.12;;;19.50;82.30;;;;;;10754054;33;20043;-74
2023/05/08 03:52:17;;;;;;;5.90;4.90;;;19.60;82.40;;;;;;10753713;33;20017;-73
2023/05/08 03:58:34;;;;;;;6.80;5.12;;;19.60;82.50;;;;;;10753656;33;20399;-74
2023/05/08 04:04:41;;;;;;;4.47;3.03;;;19.50;82.60;;;;;;10738719;33;20033;-73
2023/05/08 04:10:50;;;;;;;6.35;2.67;;;19.50;82.50;;;;;;10749745;33;20342;-71
2023/05/08 04:17:01;;;;;;;4.45;3.03;;;19.60;82.20;;;;;;10749191;33;20029;-71
2023/05/08 04:23:04;;;;;;;3.03;2.50;;;19.70;82.20;;;;;;10748914;33;20021;-72
2023/05/08 04:29:07;;;;;;;2.65;2.03;;;19.70;81.80;;;;;;10752660;33;20044;-71
2023/05/08 04:35:12;;;;;;;4.22;2.37;;;19.70;81.70;;;;;;10752701;33;20043;-70
2023/05/08 04:41:14;;;;;;;5.37;3.75;;;19.70;81.60;;;;;;10739573;33;20005;-71
2023/05/08 04:47:18;;;;;;;8.07;2.80;;;19.80;81.90;;;;;;10747783;33;20043;-71
2023/05/08 04:53:20;;;;;;;3.22;2.58;;;19.80;82.00;;;;;;10739064;33;20028;-71
2023/05/08 04:59:23;;;;;;;3.95;2.37;;;19.80;81.80;;;;;;10751932;33;20013;-72
2023/05/08 05:05:26;;;;;;;5.12;2.97;;;19.70;81.50;;;;;;10751834;33;20387;-72
2023/05/08 05:11:28;;;;;;;3.62;2.37;;;19.70;81.70;;;;;;10749047;33;20308;-72
2023/05/08 05:17:32;;;;;;;6.20;3.12;;;19.80;81.50;;;;;;10737858;33;20029;-71
2023/05/08 05:23:35;;;;;;;5.28;3.55;;;19.70;81.50;;;;;;10765709;33;20055;-71
2023/05/08 05:29:40;;;;;;;4.45;3.28;;;19.60;81.90;;;;;;10774900;33;20020;-72
2023/05/08 05:35:42;;;;;;;6.68;3.90;;;19.70;81.60;;;;;;10787417;33;20050;-72
2023/05/08 05:41:45;;;;;;;7.57;5.05;;;19.70;81.60;;;;;;10787297;33;20072;-72
2023/05/08 05:47:48;;;;;;;6.28;4.25;;;19.60;81.70;;;;;;10787420;33;20029;-73
2023/05/08 05:53:52;;;;;;;4.82;3.35;;;19.40;82.10;;;;;;10787090;33;20054;-72
2023/05/08 05:59:55;;;;;;;6.82;5.20;;;19.30;82.40;;;;;;10790712;33;20024;-73
2023/05/08 06:06:14;;;;;;;5.07;3.37;;;19.30;82.60;;;;;;10793292;33;20429;-73
2023/05/08 06:12:22;;;;;;;4.00;2.80;;;19.30;82.60;;;;;;10793059;33;20024;-73
2023/05/08 06:18:28;;;;;;;4.82;3.10;;;19.20;82.60;;;;;;10779830;33;20050;-73
2023/05/08 06:24:31;;;;;;;3.37;2.65;;;19.30;82.70;;;;;;10792705;33;20452;-73
2023/05/08 06:30:34;;;;;;;3.37;2.47;;;19.40;82.40;;;;;;10792764;33;20051;-74
2023/05/08 06:36:37;;;;;;;5.18;3.72;;;19.50;82.30;;;;;;10788850;33;20028;-73
2023/05/08 06:42:40;;;;;;;3.80;2.62;;;19.60;82.40;;;;;;10778177;33;20067;-74
2023/05/08 06:48:42;;;;;;;3.58;2.12;;;19.50;82.40;;;;;;10753824;33;20351;-74
2023/05/08 06:54:49;;;;;;;3.67;2.42;;;19.60;82.20;;;;;;10753313;33;20040;-74
2023/05/08 07:00:51;;;;;;;4.43;2.53;;;19.60;82.20;;;;;;10753058;33;20446;-74
2023/05/08 07:06:53;;;;;;;3.50;2.47;;;19.70;82.10;;;;;;10753278;33;20043;-74
2023/05/08 07:12:56;;;;;;;5.68;2.33;;;19.70;82.10;;;;;;10750153;33;20049;-74
2023/05/08 07:18:58;;;;;;;3.45;2.55;;;19.70;82.40;;;;;;10750164;33;20021;-74
2023/05/08 07:25:06;;;;;;;4.85;2.50;;;19.70;82.60;;;;;;10749638;33;20025;-74
2023/05/08 07:31:09;;;;;;;5.50;3.17;;;19.70;82.80;;;;;;10750936;33;20047;-73
2023/05/08 07:37:13;;;;;;;2.70;1.95;;;19.70;82.70;;;;;;10750502;33;20028;-74
2023/05/08 07:43:15;;;;;;;5.95;2.55;;;19.70;82.50;;;;;;10740583;33;20355;-74
2023/05/08 07:49:17;;;;;;;3.37;2.35;;;19.80;82.30;;;;;;10749652;33;20331;-74
2023/05/08 07:55:20;;;;;;;5.93;2.97;;;19.80;82.10;;;;;;10538441;27;7137128;-74
2023/05/08 08:01:22;;;;;;;5.37;2.60;;;19.80;81.90;;;;;;10725670;33;20059;-74
2023/05/08 08:07:24;;;;;;;4.07;2.78;;;19.80;81.80;;;;;;10754537;33;20390;-74
2023/05/08 08:13:26;;;;;;;4.28;3.00;;;19.90;82.10;;;;;;10754346;33;20052;-74
2023/05/08 08:19:28;;;;;;;7.60;2.87;;;19.90;82.40;;;;;;10750473;33;20025;-74
2023/05/08 08:25:30;;;;;;;5.05;2.95;;;19.90;82.50;;;;;;10750580;33;20052;-74
2023/05/08 08:31:32;;;;;;;5.50;3.58;;;20.00;82.40;;;;;;10750211;33;20016;-74
2023/05/08 08:37:35;;;;;;;5.20;3.37;;;20.00;82.40;;;;;;10739381;32;20071;-75
2023/05/08 08:43:42;;;;;;;6.87;5.07;;;20.00;82.60;;;;;;10753580;33;20051;-73
2023/05/08 08:49:50;;;;;;;7.53;5.32;;;20.10;82.50;;;;;;10753238;33;20029;-74
2023/05/08 08:55:55;;;;;;;6.80;4.47;;;20.10;82.70;;;;;;10740280;33;20326;-74
2023/05/08 09:02:05;;;;;;;7.97;4.20;;;20.00;82.80;;;;;;10753001;33;20045;-73
2023/05/08 09:08:08;;;;;;;6.10;3.90;;;20.00;83.10;;;;;;10752835;33;20387;-73
2023/05/08 09:14:10;;;;;;;8.88;6.22;;;20.10;82.90;;;;;;10752402;33;20083;-74
2023/05/08 09:20:14;;;;;;;6.35;4.75;;;20.20;83.00;;;;;;10752049;33;20035;-72
2023/05/08 09:26:31;;;;;;;9.60;4.80;;;20.20;83.00;;;;;;10751729;33;20434;-73
2023/05/08 09:32:38;;;;;;;5.62;3.53;;;20.20;82.80;;;;;;10752885;33;20413;-74
2023/05/08 09:38:42;;;;;;;5.43;3.93;;;20.20;82.90;;;;;;10751461;33;20020;-73
2023/05/08 09:44:52;;;;;;;5.40;4.03;;;20.20;82.90;;;;;;10749588;33;20025;-73
2023/05/08 09:51:05;;;;;;;5.32;3.60;;;20.20;82.80;;;;;;10748885;33;20052;-73
2023/05/08 09:57:12;;;;;;;7.32;4.85;;;20.30;82.80;;;;;;10721441;33;20037;-72
2023/05/08 10:03:15;;;;;;;7.43;4.35;;;20.30;82.60;;;;;;10737361;32;20047;-73
2023/05/08 10:09:17;;;;;;;5.95;3.62;;;20.30;82.80;;;;;;10737118;33;20033;-73
2023/05/08 10:15:27;;;;;;;7.32;3.87;;;20.30;82.70;;;;;;10750705;33;20033;-74
2023/05/08 10:21:34;;;;;;;6.45;4.70;;;20.30;82.60;;;;;;10750390;33;20028;-74
2023/05/08 10:27:36;;;;;;;7.07;5.40;;;20.40;82.20;;;;;;10751004;33;20040;-74
2023/05/08 10:33:40;;;;;;;6.68;5.05;;;20.60;82.40;;;;;;10735820;33;20063;-74
2023/05/08 10:39:48;;;;;;;8.38;4.75;;;20.50;82.40;;;;;;10750635;33;20020;-75
2023/05/08 10:45:52;;;;;;;5.73;4.10;;;20.50;82.30;;;;;;10739147;33;20086;-74
2023/05/08 10:52:20;;;;;;;7.00;5.12;;;20.50;82.70;;;;;;10753622;33;20020;-73
2023/05/08 10:58:33;;;;;;;6.85;4.72;;;20.50;82.70;;;;;;10753394;33;20028;-73
2023/05/08 11:04:35;;;;;;;7.72;4.57;;;20.50;82.70;;;;;;10742999;32;20055;-73
2023/05/08 11:10:39;;;;;;;6.62;4.03;;;20.50;82.70;;;;;;10752629;33;20342;-73
2023/05/08 11:16:58;;;;;;;7.60;4.68;;;20.50;82.40;;;;;;10753652;33;20029;-73
2023/05/08 11:23:23;;;;;;;9.00;7.03;;;20.60;82.30;;;;;;10718381;33;20399;-72
2023/05/08 11:29:33;;;;;;;6.07;4.53;;;20.70;82.20;;;;;;10719475;33;20048;-73
2023/05/08 11:35:43;;;;;;;7.90;4.65;;;20.70;82.10;;;;;;10719119;33;20017;-72
2023/05/08 11:41:46;;;;;;;7.22;4.37;;;20.70;82.00;;;;;;10718959;33;20379;-74
2023/05/08 11:47:49;;;;;;;5.78;4.18;;;20.70;81.70;;;;;;10750792;33;20058;-73
2023/05/08 11:53:52;;;;;;;5.57;3.70;;;20.80;81.70;;;;;;10752159;33;20070;-73
2023/05/08 11:59:54;;;;;;;5.97;4.15;;;20.80;81.50;;;;;;10752094;33;20399;-73
2023/05/08 12:05:59;;;;;;;5.90;4.50;;;20.80;81.20;;;;;;10741640;33;20043;-73
2023/05/08 12:12:03;;;;;;;6.65;4.22;;;20.80;80.90;;;;;;10738017;33;20004;-73
2023/05/08 12:18:06;;;;;;;5.43;3.90;;;20.80;80.70;;;;;;10745926;33;20029;-73
2023/05/08 12:24:11;;;;;;;8.63;4.45;;;20.80;80.40;;;;;;10754314;33;20021;-71
2023/05/08 12:30:14;;;;;;;6.40;4.40;;;20.80;80.40;;;;;;10789857;33;20017;-73
2023/05/08 12:36:18;;;;;;;5.15;3.67;;;20.80;80.00;;;;;;10786666;33;20046;-73
2023/05/08 12:42:22;;;;;;;6.20;3.72;;;20.80;80.00;;;;;;10789524;33;20086;-73
2023/05/08 12:48:27;;;;;;;6.93;4.25;;;20.80;80.00;;;;;;10777055;33;20012;-73
2023/05/08 12:54:35;;;;;;;7.75;5.20;;;20.80;79.90;;;;;;10776173;32;20090;-73
2023/05/08 13:00:46;;;;;;;5.82;4.30;;;20.90;79.80;;;;;;10785943;33;20099;-73
2023/05/08 13:06:58;;;;;;;6.55;4.35;;;20.90;79.90;;;;;;10788700;33;20039;-72
2023/05/08 13:13:00;;;;;;;7.25;5.47;;;20.90;79.60;;;;;;10789212;33;20028;-73
2023/05/08 13:19:02;;;;;;;7.60;5.53;;;20.90;79.50;;;;;;10776204;32;20032;-73
2023/05/08 13:25:06;;;;;;;7.53;5.65;;;20.90;79.40;;;;;;10774504;33;20023;-73
2023/05/08 13:31:09;;;;;;;7.47;5.62;;;20.90;79.30;;;;;;10785094;33;20016;-73
2023/05/08 13:37:14;;;;;;;6.53;4.80;;;21.00;79.10;;;;;;10771740;32;20033;-73
2023/05/08 13:43:19;;;;;;;7.12;5.12;;;21.10;78.70;;;;;;10785965;33;20028;-72
2023/05/08 13:49:26;;;;;;;7.30;4.65;;;21.10;78.50;;;;;;10770930;33;20004;-73
2023/05/08 13:55:28;;;;;;;7.70;5.35;;;21.20;78.40;;;;;;10788059;33;20303;-72
2023/05/08 14:01:56;;;;;;;9.02;6.05;;;21.20;78.90;;;;;;10783520;33;20036;-72
2023/05/08 14:07:58;;;;;;;8.07;6.28;;;21.20;79.10;;;;;;10786536;33;20051;-72
2023/05/08 14:14:01;;;;;;;9.07;6.20;;;21.20;79.20;;;;;;10774497;32;20502;-73
2023/05/08 14:20:04;;;;;;;11.50;9.40;;;21.20;79.10;;;;;;10777950;33;20020;-72
2023/05/08 14:26:08;;;;;;;10.43;8.18;;;21.20;79.20;;;;;;10792068;33;20032;-73
2023/05/08 14:32:23;;;;;;;8.90;6.53;;;21.20;79.80;;;;;;10793916;33;20056;-73
2023/05/08 14:38:25;;;;;;;10.13;8.15;;;21.20;79.40;;;;;;10793317;33;20453;-72
2023/05/08 14:44:27;;;;;;;9.75;6.12;;;21.30;79.60;;;;;;10792121;33;20044;-74
2023/05/08 14:50:30;;;;;;;9.77;6.93;;;21.30;79.70;;;;;;10778036;33;20214;-72
2023/05/08 14:56:36;;;;;;;8.18;5.78;;;21.30;79.70;;;;;;10780041;33;20407;-72
2023/05/08 15:02:38;;;;;;;9.00;7.25;;;21.30;79.70;;;;;;10792064;33;20043;-74
2023/05/08 15:08:40;;;;;;;7.22;4.75;;;21.30;79.70;;;;;;10789324;33;20052;-73
2023/05/08 15:15:12;;;;;;;8.75;6.35;;;21.30;80.20;;;;;;10792591;33;20024;-73
2023/05/08 15:21:16;;;;;;;9.82;7.72;;;21.30;80.10;;;;;;10791772;33;20021;-72
2023/05/08 15:27:21;;;;;;;8.98;5.12;;;21.40;80.40;;;;;;10715116;33;20033;-72
2023/05/08 15:33:26;;;;;;;7.87;5.55;;;21.30;80.10;;;;;;10711898;33;20044;-72
2023/05/08 15:39:28;;;;;;;6.70;5.25;;;21.30;79.70;;;;;;10674948;33;20033;-72
2023/05/08 15:45:30;;;;;;;5.90;4.43;;;21.30;79.30;;;;;;10678511;33;20048;-72
2023/05/08 15:51:32;;;;;;;6.20;4.22;;;21.40;79.10;;;;;;10681335;27;20036;-72
2023/05/08 15:57:34;;;;;;;5.72;4.22;;;21.40;79.20;;;;;;10726342;33;20055;-72
2023/05/08 16:03:37;;;;;;;7.70;5.68;;;21.30;79.10;;;;;;10727440;33;20028;-72
2023/05/08 16:09:40;;;;;;;5.72;3.22;;;21.30;79.10;;;;;;10751146;33;20024;-73
2023/05/08 16:15:43;;;;;;;6.57;4.18;;;21.30;79.10;;;;;;10754329;33;20421;-73
2023/05/08 16:21:46;;;;;;;4.07;2.92;;;21.30;79.10;;;;;;10753921;33;20017;-73
2023/05/08 16:27:49;;;;;;;5.47;3.87;;;21.30;79.20;;;;;;10752733;33;20024;-72
2023/05/08 16:33:51;;;;;;;5.55;4.05;;;21.20;79.20;;;;;;10753244;33;20048;-73
2023/05/08 16:39:53;;;;;;;4.70;2.80;;;21.20;79.30;;;;;;10750961;33;20032;-73
2023/05/08 16:45:55;;;;;;;6.28;3.35;;;21.20;79.60;;;;;;10751227;33;20016;-73
2023/05/08 16:51:58;;;;;;;4.95;2.90;;;21.10;79.80;;;;;;10752181;33;20043;-73
2023/05/08 16:58:00;;;;;;;6.47;3.87;;;21.10;79.90;;;;;;10740848;33;20016;-72
2023/05/08 17:04:02;;;;;;;9.48;5.12;;;21.10;79.90;;;;;;10749285;33;20020;-72
2023/05/08 17:10:05;;;;;;;5.55;3.35;;;21.10;80.10;;;;;;10751443;33;20055;-72
2023/05/08 17:16:07;;;;;;;5.18;3.47;;;21.00;80.40;;;;;;10751462;33;20043;-73
2023/05/08 17:22:10;;;;;;;6.72;4.25;;;21.00;80.70;;;;;;10752516;33;20021;-73
2023/05/08 17:28:13;;;;;;;4.85;3.65;;;21.00;80.60;;;;;;10738406;33;20009;-72
2023/05/08 17:34:15;;;;;;;6.68;4.28;;;21.00;80.50;;;;;;10736128;33;20016;-73
2023/05/08 17:40:17;;;;;;;6.18;3.72;;;21.00;80.40;;;;;;10739727;33;20017;-72
2023/05/08 17:46:20;;;;;;;5.65;3.67;;;20.90;80.40;;;;;;10750939;33;20043;-72
2023/05/08 17:52:22;;;;;;;3.85;3.00;;;20.90;80.50;;;;;;10723653;33;20299;-74
2023/05/08 17:58:25;;;;;;;5.87;3.08;;;20.90;80.40;;;;;;10739447;33;20036;-74
2023/05/08 18:04:28;;;;;;;4.18;2.75;;;20.90;80.70;;;;;;10758027;33;20323;-74
2023/05/08 18:10:31;;;;;;;5.65;3.47;;;20.80;80.90;;;;;;10758072;33;20021;-74
2023/05/08 18:16:33;;;;;;;5.90;3.10;;;20.80;81.00;;;;;;10745440;33;20043;-74
2023/05/08 18:22:35;;;;;;;6.03;3.25;;;20.70;81.00;;;;;;10757564;33;20018;-74
2023/05/08 18:28:37;;;;;;;4.57;3.45;;;20.60;81.10;;;;;;10756374;33;20043;-74
2023/05/08 18:34:39;;;;;;;6.12;3.58;;;20.60;81.00;;;;;;10741082;33;20032;-74
2023/05/08 18:40:42;;;;;;;4.78;3.40;;;20.50;81.30;;;;;;10757113;33;20414;-74
2023/05/08 18:46:44;;;;;;;3.85;2.45;;;20.50;81.40;;;;;;10754978;33;20024;-74
2023/05/08 18:52:46;;;;;;;8.52;3.05;;;20.50;81.40;;;;;;10754632;33;20025;-73
2023/05/08 18:58:49;;;;;;;6.07;3.00;;;20.50;81.40;;;;;;10742103;33;20032;-73
2023/05/08 19:04:51;;;;;;;6.57;4.25;;;20.50;81.30;;;;;;10756119;33;20021;-72
2023/05/08 19:11:17;;;;;;;7.05;4.07;;;20.50;81.40;;;;;;10741668;33;20032;-76
2023/05/08 19:17:29;;;;;;;4.90;3.22;;;20.40;81.30;;;;;;10755958;33;20051;-75
2023/05/08 19:23:31;;;;;;;7.50;3.45;;;20.30;81.60;;;;;;10753088;33;20044;-73
2023/05/08 19:29:33;;;;;;;9.20;3.45;;;20.30;81.80;;;;;;10742875;33;20016;-72
2023/05/08 19:35:35;;;;;;;4.57;3.15;;;20.20;82.10;;;;;;10752165;33;20028;-73
2023/05/08 19:41:38;;;;;;;4.28;2.25;;;20.20;82.00;;;;;;10751947;33;20009;-73
2023/05/08 19:47:48;;;;;;;2.70;2.12;;;20.10;81.80;;;;;;10753924;33;20028;-73
2023/05/08 19:53:50;;;;;;;3.80;1.80;;;20.10;81.70;;;;;;10753517;33;20326;-73
2023/05/08 19:59:52;;;;;;;3.47;1.83;;;20.00;81.60;;;;;;10740842;33;20020;-72
2023/05/08 20:05:54;;;;;;;1.83;1.30;;;19.90;81.10;;;;;;10752656;33;20308;-72
2023/05/08 20:11:56;;;;;;;3.40;2.37;;;19.80;81.60;;;;;;10738855;33;20063;-73
2023/05/08 20:18:01;;;;;;;2.40;1.45;;;19.70;81.70;;;;;;10737479;33;20402;-72
2023/05/08 20:24:07;;;;;;;3.13;1.90;;;19.60;81.50;;;;;;10752970;33;20331;-73
2023/05/08 20:30:11;;;;;;;5.68;1.45;;;19.70;81.90;;;;;;10738120;33;20024;-71
2023/05/08 20:36:15;;;;;;;2.65;1.70;;;19.60;81.80;;;;;;10737240;33;20395;-72
2023/05/08 20:42:17;;;;;;;2.03;1.62;;;19.50;81.80;;;;;;10753189;33;20396;-74
2023/05/08 20:48:19;;;;;;;2.50;1.67;;;19.50;81.70;;;;;;10736559;33;20040;-72
2023/05/08 20:54:21;;;;;;;2.37;1.75;;;19.50;81.50;;;;;;10752276;33;20437;-72
2023/05/08 21:00:23;;;;;;;1.90;1.25;;;19.40;81.60;;;;;;10752092;33;20031;-73
2023/05/08 21:06:25;;;;;;;2.10;1.70;;;19.40;81.80;;;;;;10751889;33;20044;-72
2023/05/08 21:12:30;;;;;;;2.33;1.83;;;19.40;82.00;;;;;;10737796;33;20033;-72
2023/05/08 21:18:35;;;;;;;2.50;1.90;;;19.40;81.90;;;;;;10726041;33;20048;-73
2023/05/08 21:24:42;;;;;;;2.67;1.70;;;19.30;82.30;;;;;;10750465;33;20047;-73
2023/05/08 21:30:47;;;;;;;2.05;1.70;;;19.30;82.40;;;;;;10748450;33;20016;-72
2023/05/08 21:36:52;;;;;;;2.55;1.90;;;19.20;82.20;;;;;;10751022;33;20102;-72
2023/05/08 21:42:55;;;;;;;3.97;2.58;;;19.20;82.50;;;;;;10751019;33;20029;-72
2023/05/08 21:48:59;;;;;;;3.90;2.72;;;19.20;82.40;;;;;;10748902;33;20029;-72
2023/05/08 21:55:07;;;;;;;2.85;2.42;;;19.10;82.50;;;;;;10737548;33;20049;-72
2023/05/08 22:01:33;;;;;;;4.28;2.80;;;19.10;82.50;;;;;;10711572;32;20055;-72
2023/05/08 22:07:37;;;;;;;4.47;3.08;;;19.00;82.40;;;;;;10710460;33;20343;-72
2023/05/08 22:13:40;;;;;;;4.68;3.45;;;18.90;82.20;;;;;;10707496;33;20328;-72
2023/05/08 22:19:44;;;;;;;4.82;3.30;;;18.80;82.30;;;;;;10710522;33;20049;-72
2023/05/08 22:25:47;;;;;;;10.98;4.05;;;18.80;82.00;;;;;;10706898;33;20029;-72
2023/05/08 22:31:48;;;;;;;5.22;4.07;;;18.80;82.20;;;;;;10739241;33;20323;-74
2023/05/08 22:37:56;;;;;;;5.97;3.40;;;18.70;82.50;;;;;;10749193;33;20072;-72
2023/05/08 22:43:58;;;;;;;7.15;3.50;;;18.70;82.40;;;;;;10742298;33;20028;-73
2023/05/08 22:50:01;;;;;;;3.90;2.97;;;18.70;82.30;;;;;;10730495;32;20331;-72
2023/05/08 22:56:03;;;;;;;4.87;2.67;;;18.70;82.60;;;;;;10755508;33;20025;-72
2023/05/08 23:02:05;;;;;;;4.68;2.22;;;18.70;82.50;;;;;;10753171;33;20048;-72
2023/05/08 23:08:07;;;;;;;4.72;3.25;;;18.80;82.80;;;;;;10755357;33;20043;-72
2023/05/08 23:14:09;;;;;;;4.55;3.03;;;18.70;82.90;;;;;;10755022;33;20039;-72
2023/05/08 23:20:11;;;;;;;6.32;4.37;;;18.70;82.90;;;;;;10752511;33;20047;-72
2023/05/08 23:26:13;;;;;;;6.07;4.43;;;18.60;82.50;;;;;;10754844;33;20013;-73
2023/05/08 23:32:28;;;;;;;5.22;3.92;;;18.50;82.80;;;;;;10751410;33;20051;-72
2023/05/08 23:38:30;;;;;;;7.87;5.57;;;18.30;82.30;;;;;;10754301;33;20338;-71
2023/05/08 23:44:32;;;;;;;9.50;5.10;;;18.30;82.50;;;;;;10750371;33;20291;-71
2023/05/08 23:50:34;;;;;;;6.80;3.90;;;18.30;82.70;;;;;;10751640;27;20032;-72
2023/05/08 23:56:36;;;;;;;4.55;3.42;;;18.30;82.70;;;;;;10719297;33;20029;-71
